createdAt,value
2022-11-10T00:00:49.486Z,99.65
2022-11-10T00:03:52.829Z,99.59
2022-11-10T00:07:14.428Z,99.37
2022-11-10T00:10:31.572Z,99.44
2022-11-10T00:13:35.828Z,99.35
2022-11-10T00:16:56.134Z,99.50
2022-11-10T00:19:58.252Z,99.41
2022-11-10T00:22:59.941Z,99.04
2022-11-10T00:26:01.942Z,99.14
2022-11-10T00:29:03.752Z,99.06
2022-11-10T00:32:05.426Z,99.18
2022-11-10T00:35:07.878Z,99.27
2022-11-10T00:38:10.104Z,98.91
2022-11-10T00:41:12.161Z,99.01
2022-11-10T00:44:13.882Z,99.18
2022-11-10T00:47:15.488Z,99.14
2022-11-10T00:50:17.450Z,98.92
2022-11-10T00:53:19.563Z,99.15
2022-11-10T00:56:22.888Z,99.26
2022-11-10T00:59:24.553Z,99.32
2022-11-10T01:02:26.283Z,99.20
2022-11-10T01:05:28.345Z,99.02
2022-11-10T01:08:29.903Z,98.90
2022-11-10T01:11:31.552Z,98.98
2022-11-10T01:14:33.205Z,99.47
2022-11-10T01:17:35.020Z,99.64
2022-11-10T01:20:36.684Z,99.85
2022-11-10T01:23:38.584Z,98.89
2022-11-10T01:26:40.254Z,97.92
2022-11-10T01:29:41.950Z,98.02
2022-11-10T01:32:43.855Z,98.91
2022-11-10T01:35:46.068Z,99.21
2022-11-10T01:38:47.774Z,98.74
2022-11-10T01:41:49.414Z,98.87
2022-11-10T01:45:22.661Z,99.32
2022-11-10T01:48:30.493Z,98.85
2022-11-10T01:51:35.546Z,98.24
2022-11-10T01:54:41.334Z,98.99
2022-11-10T01:57:43.671Z,99.59
2022-11-10T02:00:45.464Z,99.09
2022-11-10T02:03:54.539Z,99.13
2022-11-10T02:06:56.469Z,99.76
2022-11-10T02:09:58.097Z,99.79
2022-11-10T02:12:59.820Z,99.62
2022-11-10T02:16:01.510Z,99.96
2022-11-10T02:19:17.999Z,100.00
2022-11-10T02:22:19.675Z,99.99
2022-11-10T02:25:22.460Z,100.00
2022-11-10T02:28:25.634Z,100.00
2022-11-10T02:31:27.297Z,100.00
2022-11-10T02:34:28.982Z,100.00
2022-11-10T02:37:30.818Z,99.89
2022-11-10T02:40:32.332Z,99.95
2022-11-10T02:43:34.604Z,99.90
2022-11-10T02:46:37.752Z,99.90
2022-11-10T02:49:39.400Z,99.97
2022-11-10T02:52:41.067Z,100.00
2022-11-10T02:55:42.754Z,100.00
2022-11-10T02:58:44.420Z,100.00
2022-11-10T03:01:46.141Z,99.99
2022-11-10T03:04:47.797Z,100.00
2022-11-10T03:07:54.181Z,99.98
2022-11-10T03:10:56.687Z,99.92
2022-11-10T03:14:02.025Z,99.95
2022-11-10T03:17:04.642Z,99.99
2022-11-10T03:20:06.619Z,99.87
2022-11-10T03:23:08.561Z,99.86
2022-11-10T03:26:10.256Z,100.00
2022-11-10T03:29:11.931Z,99.95
2022-11-10T03:32:13.677Z,99.82
2022-11-10T03:35:15.386Z,99.73
2022-11-10T03:38:17.439Z,99.85
2022-11-10T03:41:20.462Z,99.93
2022-11-10T03:44:22.705Z,99.98
2022-11-10T03:47:24.657Z,100.00
2022-11-10T03:50:26.237Z,100.00
2022-11-10T03:53:27.864Z,100.00
2022-11-10T03:56:29.634Z,100.00
2022-11-10T03:59:31.490Z,100.00
2022-11-10T04:02:33.255Z,100.00
2022-11-10T04:05:53.637Z,100.00
2022-11-10T04:09:01.014Z,100.00
2022-11-10T04:12:24.888Z,100.00
2022-11-10T04:15:42.127Z,100.00
2022-11-10T04:18:43.737Z,100.00
2022-11-10T04:21:45.513Z,100.00
2022-11-10T04:24:47.116Z,100.00
2022-11-10T04:27:48.960Z,100.00
2022-11-10T04:30:50.551Z,100.00
2022-11-10T04:33:53.001Z,100.00
2022-11-10T04:36:54.700Z,100.00
2022-11-10T04:39:56.234Z,100.00
2022-11-10T04:42:57.945Z,100.00
2022-11-10T04:45:59.660Z,100.00
2022-11-10T04:49:01.669Z,100.00
2022-11-10T04:52:03.514Z,100.00
2022-11-10T04:55:05.743Z,100.00
2022-11-10T04:58:07.344Z,100.00
2022-11-10T05:01:20.624Z,100.00
2022-11-10T05:04:22.388Z,100.00
2022-11-10T05:07:23.895Z,100.00
2022-11-10T05:10:26.248Z,100.00
2022-11-10T05:13:28.161Z,100.00
2022-11-10T05:16:29.805Z,100.00
2022-11-10T05:19:31.318Z,100.00
2022-11-10T05:22:32.995Z,100.00
2022-11-10T05:25:35.625Z,100.00
2022-11-10T05:28:38.452Z,100.00
2022-11-10T05:31:40.071Z,100.00
2022-11-10T05:34:41.849Z,100.00
2022-11-10T05:37:43.575Z,100.00
2022-11-10T05:40:45.260Z,100.00
2022-11-10T05:43:47.456Z,100.00
2022-11-10T05:46:49.083Z,100.00
2022-11-10T05:49:50.740Z,100.00
2022-11-10T05:52:53.851Z,100.00
2022-11-10T05:55:55.652Z,100.00
2022-11-10T05:58:57.254Z,100.00
2022-11-10T06:01:58.837Z,100.00
2022-11-10T06:05:00.553Z,100.00
2022-11-10T06:08:02.976Z,100.00
2022-11-10T06:11:04.803Z,100.00
2022-11-10T06:14:06.374Z,100.00
2022-11-10T06:17:08.056Z,100.00
2022-11-10T06:20:09.916Z,100.00
2022-11-10T06:23:12.893Z,100.00
2022-11-10T06:26:14.549Z,100.00
2022-11-10T06:29:16.120Z,100.00
2022-11-10T06:32:18.321Z,100.00
2022-11-10T06:35:20.622Z,100.00
2022-11-10T06:38:22.271Z,100.00
2022-11-10T06:41:25.423Z,100.00
2022-11-10T06:44:27.357Z,100.00
2022-11-10T06:47:29.841Z,100.00
2022-11-10T06:50:31.717Z,100.00
2022-11-10T06:53:33.609Z,100.00
2022-11-10T06:56:35.759Z,100.00
2022-11-10T06:59:37.476Z,100.00
2022-11-10T07:02:38.966Z,100.00
2022-11-10T07:05:40.569Z,100.00
2022-11-10T07:08:42.241Z,100.00
2022-11-10T07:11:43.975Z,100.00
2022-11-10T07:14:45.577Z,100.00
2022-11-10T07:17:47.192Z,100.00
2022-11-10T07:20:48.880Z,100.00
2022-11-10T07:23:50.540Z,100.00
2022-11-10T07:26:52.257Z,100.00
2022-11-10T07:29:53.917Z,100.00
2022-11-10T07:33:12.476Z,100.00
2022-11-10T07:36:14.402Z,100.00
2022-11-10T07:39:16.224Z,100.00
2022-11-10T07:42:17.904Z,100.00
2022-11-10T07:45:19.435Z,100.00
2022-11-10T07:48:21.205Z,100.00
2022-11-10T07:51:22.940Z,100.00
2022-11-10T07:54:24.527Z,100.00
2022-11-10T07:57:26.093Z,100.00
2022-11-10T08:00:28.458Z,100.00
2022-11-10T08:03:30.266Z,100.00
2022-11-10T08:06:36.131Z,100.00
2022-11-10T08:09:38.235Z,100.00
2022-11-10T08:12:39.863Z,100.00
2022-11-10T08:15:42.119Z,100.00
2022-11-10T08:18:43.765Z,100.00
2022-11-10T08:21:45.518Z,100.00
2022-11-10T08:24:47.278Z,100.00
2022-11-10T08:27:48.975Z,100.00
2022-11-10T08:30:50.655Z,100.00
2022-11-10T08:33:52.576Z,100.00
2022-11-10T08:36:54.278Z,100.00
2022-11-10T08:39:56.024Z,100.00
2022-11-10T08:42:59.809Z,100.00
2022-11-10T08:46:03.971Z,100.00
2022-11-10T08:49:05.682Z,100.00
2022-11-10T08:52:07.448Z,100.00
2022-11-10T08:55:09.479Z,100.00
2022-11-10T08:58:16.640Z,100.00
2022-11-10T09:01:18.222Z,100.00
2022-11-10T09:04:19.808Z,100.00
2022-11-10T09:07:22.407Z,100.00
2022-11-10T09:10:24.185Z,100.00
2022-11-10T09:13:29.779Z,100.00
2022-11-10T09:16:32.314Z,100.00
2022-11-10T09:19:34.169Z,100.00
2022-11-10T09:22:36.858Z,100.00
2022-11-10T09:25:39.225Z,100.00
2022-11-10T09:28:40.914Z,100.00
2022-11-10T09:31:44.915Z,100.00
2022-11-10T09:34:48.947Z,100.00
2022-11-10T09:37:54.600Z,100.00
2022-11-10T09:41:03.026Z,100.00
2022-11-10T09:44:16.718Z,100.00
2022-11-10T09:47:50.802Z,100.00
2022-11-10T09:51:06.080Z,100.00
2022-11-10T09:54:16.942Z,100.00
2022-11-10T09:57:21.993Z,100.00
2022-11-10T10:00:23.646Z,100.00
2022-11-10T10:03:28.594Z,100.00
2022-11-10T10:06:43.665Z,100.00
2022-11-10T10:09:52.283Z,100.00
2022-11-10T10:13:31.353Z,100.00
2022-11-10T10:16:59.609Z,100.00
2022-11-10T10:20:04.165Z,100.00
2022-11-10T10:24:02.163Z,100.00
2022-11-10T10:26:54.704Z,100.00
2022-11-10T10:29:56.454Z,100.00
2022-11-10T10:33:14.489Z,100.00
2022-11-10T10:36:28.290Z,100.00
2022-11-10T10:39:37.073Z,100.00
2022-11-10T10:42:38.760Z,100.00
2022-11-10T10:45:42.429Z,100.00
2022-11-10T10:48:44.294Z,100.00
2022-11-10T10:51:46.177Z,100.00
2022-11-10T10:54:47.784Z,100.00
2022-11-10T10:57:58.331Z,100.00
2022-11-10T11:01:15.633Z,100.00
2022-11-10T11:04:30.110Z,100.00
2022-11-10T11:07:31.708Z,100.00
2022-11-10T11:10:35.501Z,100.00
2022-11-10T11:13:37.778Z,100.00
2022-11-10T11:16:56.351Z,100.00
2022-11-10T11:20:00.008Z,100.00
2022-11-10T11:23:34.438Z,100.00
2022-11-10T11:26:50.509Z,100.00
2022-11-10T11:30:15.809Z,100.00
2022-11-10T11:33:21.444Z,100.00
2022-11-10T11:36:34.051Z,100.00
2022-11-10T11:39:52.109Z,100.00
2022-11-10T11:43:15.724Z,100.00
2022-11-10T11:46:35.012Z,100.00
2022-11-10T11:49:59.111Z,100.00
2022-11-10T11:53:18.763Z,100.00
2022-11-10T11:56:28.761Z,100.00
2022-11-10T11:59:36.439Z,100.00
2022-11-10T12:02:52.430Z,100.00
2022-11-10T12:06:12.860Z,100.00
2022-11-10T12:09:30.173Z,100.00
2022-11-10T12:12:53.507Z,100.00
2022-11-10T12:16:01.520Z,100.00
2022-11-10T12:19:33.397Z,100.00
2022-11-10T12:22:48.324Z,100.00
2022-11-10T12:26:12.939Z,100.00
2022-11-10T12:29:41.966Z,100.00
2022-11-10T12:32:55.883Z,100.00
2022-11-10T12:35:58.579Z,100.00
2022-11-10T12:39:11.194Z,100.00
2022-11-10T12:42:18.163Z,100.00
2022-11-10T12:45:34.178Z,100.00
2022-11-10T12:48:46.977Z,100.00
2022-11-10T12:52:12.494Z,100.00
2022-11-10T12:55:14.950Z,100.00
2022-11-10T12:58:18.243Z,100.00
2022-11-10T13:01:20.413Z,100.00
2022-11-10T13:04:22.294Z,100.00
2022-11-10T13:07:24.442Z,100.00
2022-11-10T13:10:28.036Z,100.00
2022-11-10T13:13:31.001Z,100.00
2022-11-10T13:16:41.583Z,100.00
2022-11-10T13:19:43.524Z,100.00
2022-11-10T13:22:45.252Z,100.00
2022-11-10T13:25:54.407Z,100.00
2022-11-10T13:28:58.487Z,100.00
2022-11-10T13:32:30.660Z,100.00
2022-11-10T13:35:38.410Z,100.00
2022-11-10T13:38:44.450Z,100.00
2022-11-10T13:42:01.100Z,100.00
2022-11-10T13:45:27.862Z,100.00
2022-11-10T13:48:32.977Z,100.00
2022-11-10T13:51:44.697Z,100.00
2022-11-10T13:55:03.610Z,100.00
2022-11-10T13:58:09.410Z,100.00
2022-11-10T14:01:17.231Z,100.00
2022-11-10T14:04:40.627Z,100.00
2022-11-10T14:07:45.090Z,100.00
2022-11-10T14:10:52.566Z,100.00
2022-11-10T14:14:01.137Z,100.00
2022-11-10T14:17:03.459Z,100.00
2022-11-10T14:20:21.671Z,100.00
2022-11-10T14:23:29.667Z,100.00
2022-11-10T14:26:42.630Z,100.00
2022-11-10T14:29:44.714Z,100.00
2022-11-10T14:33:05.045Z,100.00
2022-11-10T14:36:10.182Z,100.00
2022-11-10T14:39:14.903Z,100.00
2022-11-10T14:42:22.697Z,100.00
2022-11-10T14:45:28.429Z,100.00
2022-11-10T14:48:38.046Z,100.00
2022-11-10T14:51:40.296Z,100.00
2022-11-10T14:54:44.836Z,100.00
2022-11-10T14:57:49.664Z,100.00
2022-11-10T15:00:51.802Z,100.00
2022-11-10T15:03:53.700Z,100.00
2022-11-10T15:06:56.828Z,100.00
2022-11-10T15:10:15.975Z,100.00
2022-11-10T15:13:26.950Z,100.00
2022-11-10T15:16:30.726Z,100.00
2022-11-10T15:19:37.064Z,100.00
2022-11-10T15:22:38.688Z,100.00
2022-11-10T15:25:41.175Z,100.00
2022-11-10T15:28:43.375Z,100.00
2022-11-10T15:31:45.520Z,100.00
2022-11-10T15:34:48.187Z,100.00
2022-11-10T15:38:19.623Z,100.00
2022-11-10T15:41:27.160Z,100.00
2022-11-10T15:44:29.203Z,100.00
2022-11-10T15:47:31.064Z,100.00
2022-11-10T15:50:32.727Z,100.00
2022-11-10T15:53:40.501Z,100.00
2022-11-10T15:56:42.380Z,100.00
2022-11-10T15:59:44.253Z,100.00
2022-11-10T16:02:46.052Z,100.00
2022-11-10T16:05:48.597Z,100.00
2022-11-10T16:08:50.213Z,100.00
2022-11-10T16:11:51.971Z,100.00
2022-11-10T16:14:53.858Z,100.00
2022-11-10T16:17:57.386Z,100.00
2022-11-10T16:20:59.061Z,100.00
2022-11-10T16:24:00.671Z,100.00
2022-11-10T16:27:05.714Z,100.00
2022-11-10T16:30:13.606Z,100.00
2022-11-10T16:33:16.998Z,100.00
2022-11-10T16:36:29.251Z,100.00
2022-11-10T16:39:31.872Z,100.00
2022-11-10T16:42:33.494Z,100.00
2022-11-10T16:45:35.269Z,100.00
2022-11-10T16:48:37.788Z,100.00
2022-11-10T16:51:47.275Z,100.00
2022-11-10T16:54:50.549Z,100.00
2022-11-10T16:57:52.185Z,100.00
2022-11-10T17:00:57.462Z,100.00
2022-11-10T17:04:01.621Z,100.00
2022-11-10T17:07:03.614Z,100.00
2022-11-10T17:10:06.497Z,100.00
2022-11-10T17:13:11.322Z,100.00
2022-11-10T17:16:26.377Z,100.00
2022-11-10T17:19:28.087Z,100.00
2022-11-10T17:22:32.119Z,100.00
2022-11-10T17:25:35.518Z,100.00
2022-11-10T17:28:37.324Z,100.00
2022-11-10T17:31:38.945Z,100.00
2022-11-10T17:34:40.496Z,100.00
2022-11-10T17:37:43.687Z,100.00
2022-11-10T17:40:45.463Z,100.00
2022-11-10T17:43:47.664Z,100.00
2022-11-10T17:46:49.245Z,100.00
2022-11-10T17:49:50.906Z,100.00
2022-11-10T17:52:52.801Z,100.00
2022-11-10T17:55:54.415Z,100.00
2022-11-10T17:58:56.062Z,100.00
2022-11-10T18:01:58.321Z,100.00
2022-11-10T18:05:00.231Z,100.00
2022-11-10T18:08:02.083Z,100.00
2022-11-10T18:11:03.780Z,100.00
2022-11-10T18:14:05.551Z,100.00
2022-11-10T18:17:07.193Z,100.00
2022-11-10T18:20:10.204Z,100.00
2022-11-10T18:23:13.014Z,100.00
2022-11-10T18:26:14.684Z,100.00
2022-11-10T18:29:16.295Z,100.00
2022-11-10T18:32:17.967Z,100.00
2022-11-10T18:35:19.777Z,100.00
2022-11-10T18:38:21.481Z,100.00
2022-11-10T18:41:41.822Z,100.00
2022-11-10T18:44:43.644Z,100.00
2022-11-10T18:47:45.416Z,100.00
2022-11-10T18:50:47.195Z,100.00
2022-11-10T18:53:48.760Z,100.00
2022-11-10T18:56:50.970Z,100.00
2022-11-10T18:59:52.654Z,100.00
2022-11-10T19:02:55.404Z,100.00
2022-11-10T19:05:58.925Z,100.00
2022-11-10T19:09:00.716Z,100.00
2022-11-10T19:12:02.349Z,100.00
2022-11-10T19:15:04.634Z,100.00
2022-11-10T19:18:06.447Z,100.00
2022-11-10T19:21:20.330Z,100.00
2022-11-10T19:24:27.775Z,100.00
2022-11-10T19:27:30.578Z,100.00
2022-11-10T19:30:32.235Z,100.00
2022-11-10T19:33:36.125Z,100.00
2022-11-10T19:36:38.152Z,100.00
2022-11-10T19:39:40.149Z,100.00
2022-11-10T19:42:41.857Z,100.00
2022-11-10T19:45:43.515Z,100.00
2022-11-10T19:48:45.333Z,100.00
2022-11-10T19:51:49.304Z,100.00
2022-11-10T19:54:50.869Z,100.00
2022-11-10T19:57:52.571Z,100.00
2022-11-10T20:00:54.981Z,100.00
2022-11-10T20:03:56.633Z,100.00
2022-11-10T20:07:27.618Z,100.00
2022-11-10T20:10:30.348Z,100.00
2022-11-10T20:13:32.857Z,100.00
2022-11-10T20:16:34.571Z,100.00
2022-11-10T20:19:40.941Z,100.00
2022-11-10T20:22:43.242Z,100.00
2022-11-10T20:25:45.021Z,100.00
2022-11-10T20:28:47.441Z,100.00
2022-11-10T20:31:49.088Z,100.00
2022-11-10T20:34:50.923Z,100.00
2022-11-10T20:37:52.701Z,100.00
2022-11-10T20:41:02.537Z,100.00
2022-11-10T20:44:04.229Z,100.00
2022-11-10T20:47:05.970Z,100.00
2022-11-10T20:50:13.138Z,100.00
2022-11-10T20:53:16.643Z,100.00
2022-11-10T20:56:18.369Z,100.00
2022-11-10T20:59:20.184Z,100.00
2022-11-10T21:02:21.958Z,100.00
2022-11-10T21:05:23.589Z,100.00
2022-11-10T21:08:25.364Z,100.00
2022-11-10T21:11:45.762Z,100.00
2022-11-10T21:14:47.760Z,100.00
2022-11-10T21:17:49.417Z,100.00
2022-11-10T21:20:51.689Z,100.00
2022-11-10T21:23:57.562Z,100.00
2022-11-10T21:26:59.354Z,100.00
2022-11-10T21:30:01.064Z,100.00
2022-11-10T21:33:05.921Z,100.00
2022-11-10T21:36:08.380Z,100.00
2022-11-10T21:39:10.049Z,100.00
2022-11-10T21:42:11.649Z,100.00
2022-11-10T21:45:13.301Z,100.00
2022-11-10T21:48:14.960Z,100.00
2022-11-10T21:51:16.842Z,100.00
2022-11-10T21:54:18.421Z,100.00
2022-11-10T21:57:19.999Z,100.00
2022-11-10T22:00:21.780Z,100.00
2022-11-10T22:03:23.625Z,100.00
2022-11-10T22:06:45.903Z,100.00
2022-11-10T22:10:06.570Z,100.00
2022-11-10T22:13:34.460Z,100.00
2022-11-10T22:17:06.967Z,100.00
2022-11-10T22:20:08.831Z,100.00
2022-11-10T22:23:11.700Z,100.00
2022-11-10T22:26:13.427Z,100.00
2022-11-10T22:29:15.211Z,100.00
2022-11-10T22:32:16.944Z,100.00
2022-11-10T22:35:37.519Z,100.00
2022-11-10T22:38:41.366Z,100.00
2022-11-10T22:42:02.070Z,100.00
2022-11-10T22:45:03.886Z,100.00
2022-11-10T22:48:24.094Z,100.00
2022-11-10T22:51:30.508Z,100.00
2022-11-10T22:54:32.071Z,100.00
2022-11-10T22:57:33.644Z,100.00
2022-11-10T23:00:35.318Z,100.00
2022-11-10T23:03:37.128Z,100.00
2022-11-10T23:06:39.130Z,100.00
2022-11-10T23:09:40.790Z,100.00
2022-11-10T23:12:42.400Z,100.00
2022-11-10T23:15:45.518Z,100.00
2022-11-10T23:18:49.708Z,100.00
2022-11-10T23:21:51.326Z,100.00
2022-11-10T23:24:56.926Z,100.00
2022-11-10T23:27:59.533Z,100.00
2022-11-10T23:31:06.974Z,100.00
2022-11-10T23:34:08.897Z,100.00
2022-11-10T23:37:10.513Z,100.00
2022-11-10T23:40:12.438Z,100.00
2022-11-10T23:43:14.074Z,100.00
2022-11-10T23:46:15.939Z,100.00
2022-11-10T23:49:17.578Z,100.00
2022-11-10T23:52:19.210Z,100.00
2022-11-10T23:55:20.939Z,100.00
2022-11-10T23:58:23.086Z,100.00
